< Typhoon 197224 1972 Season Typhoon 197226 >
Typhoon 197225 (NANCY)
General InformationTrack Information on Google Maps || Disaster Info.ResourceGoogle EarthGE AnimationAtom FeedGeoJSON
Detalied Best Track (Time Zone = UTC)
Year Month Day Hour Lat. Long. Pressure (hPa) Wind (kt) Class Image Chart
1972 10 16 00 15.6 170.2 1000 0 2 -- Chart
1972 10 16 06 15.6 169.3 998 0 2 -- Chart
1972 10 16 12 15.7 168.5 996 0 9 -- Chart
1972 10 16 18 15.7 167.7 994 0 9 -- Chart
1972 10 17 00 15.7 166.6 990 0 9 -- Chart
1972 10 17 06 15.9 165.4 980 0 9 -- Chart
1972 10 17 12 16.3 164.3 975 0 9 -- Chart
1972 10 17 18 16.5 162.8 970 0 9 -- Chart
1972 10 18 00 16.9 161.7 960 0 9 -- Chart
1972 10 18 06 17.4 160.7 955 0 9 -- Chart
1972 10 18 12 18.0 160.0 945 0 9 -- Chart
1972 10 18 18 18.9 159.2 950 0 9 -- Chart
1972 10 19 00 19.7 158.6 950 0 9 -- Chart
1972 10 19 06 20.6 158.0 950 0 9 -- Chart
1972 10 19 12 21.5 157.7 960 0 9 -- Chart
1972 10 19 18 22.2 157.7 965 0 9 -- Chart
1972 10 20 00 22.7 158.0 970 0 9 -- Chart
1972 10 20 06 23.3 158.3 975 0 9 -- Chart
1972 10 20 12 23.9 158.9 980 0 9 -- Chart
1972 10 20 18 24.5 159.7 985 0 9 -- Chart
1972 10 21 00 24.9 160.4 990 0 9 -- Chart
1972 10 21 06 25.3 161.1 990 0 9 -- Chart
1972 10 21 12 25.5 161.7 990 0 9 -- Chart
1972 10 21 18 25.7 162.4 990 0 9 -- Chart
1972 10 22 00 26.0 163.0 995 0 9 -- Chart
1972 10 22 06 26.0 163.5 1000 0 9 -- Chart
1972 10 22 12 25.7 164.0 1000 0 9 -- Chart
1972 10 22 18 25.4 164.3 1006 0 9 -- Chart
1972 10 23 00 25.0 164.4 1008 0 2 -- Chart
1972 10 23 06 25.0 163.5 1008 0 2 -- Chart
1972 10 23 12 24.7 162.0 1008 0 2 -- Chart
1972 10 23 18 24.4 160.5 1010 0 2 -- Chart
1972 10 24 00 24.1 158.9 1010 0 2 -- Chart
1972 10 24 06 23.4 156.4 1010 0 2 -- Chart
1972 10 24 12 22.6 154.0 1010 0 2 -- Chart
1972 10 24 18 21.7 151.5 1010 0 2 -- Chart
1972 10 25 00 21.0 149.0 1010 0 2 -- Chart
1972 10 25 06 20.3 146.5 1010 0 2 -- Chart
1972 10 25 12 19.5 144.0 1010 0 2 -- Chart
1972 10 25 18 18.7 141.5 1010 0 2 -- Chart
1972 10 26 00 18.0 139.0 1010 0 2 -- Chart
Japan Meteorological Agency Best Track Data | Correction Date : 1989-06-01
< Typhoon 197224 1972 Season Typhoon 197226 >

Help